createdAt,value
2023-05-24T00:02:16.186Z,7.80
2023-05-24T00:04:45.118Z,7.80
2023-05-24T00:07:12.536Z,7.80
2023-05-24T00:09:39.453Z,7.90
2023-05-24T00:12:06.559Z,7.80
2023-05-24T00:14:33.472Z,7.70
2023-05-24T00:17:00.500Z,7.70
2023-05-24T00:19:27.460Z,7.70
2023-05-24T00:21:54.341Z,7.60
2023-05-24T00:24:21.672Z,7.60
2023-05-24T00:26:48.584Z,7.50
2023-05-24T00:29:15.474Z,7.50
2023-05-24T00:31:42.511Z,7.50
2023-05-24T00:34:10.332Z,7.50
2023-05-24T00:36:38.213Z,7.50
2023-05-24T00:39:05.333Z,7.40
2023-05-24T00:41:32.406Z,7.40
2023-05-24T00:43:59.280Z,7.40
2023-05-24T00:46:31.891Z,7.40
2023-05-24T00:49:00.154Z,7.30
2023-05-24T00:51:31.930Z,7.40
2023-05-24T00:53:59.710Z,7.30
2023-05-24T00:56:27.792Z,7.20
2023-05-24T00:58:56.070Z,7.20
2023-05-24T01:01:26.293Z,7.20
2023-05-24T01:03:54.537Z,7.20
2023-05-24T01:06:23.544Z,7.10
2023-05-24T01:09:19.083Z,7.10
2023-05-24T01:12:35.966Z,7.10
2023-05-24T01:15:24.096Z,7.10
2023-05-24T01:18:08.208Z,7.10
2023-05-24T01:20:38.931Z,7.00
2023-05-24T01:23:40.189Z,7.10
2023-05-24T01:26:38.070Z,7.00
2023-05-24T01:29:06.012Z,6.90
2023-05-24T01:31:34.813Z,6.90
2023-05-24T01:34:01.759Z,6.90
2023-05-24T01:36:28.691Z,6.80
2023-05-24T01:38:55.753Z,6.90
2023-05-24T01:41:27.039Z,6.80
2023-05-24T01:44:04.692Z,6.90
2023-05-24T01:46:39.079Z,6.90
2023-05-24T01:49:42.282Z,6.80
2023-05-24T01:52:12.988Z,6.70
2023-05-24T01:54:45.656Z,6.80
2023-05-24T01:57:13.098Z,6.80
2023-05-24T01:59:44.466Z,6.80
2023-05-24T02:02:12.129Z,6.80
2023-05-24T02:04:40.637Z,6.70
2023-05-24T02:07:07.517Z,6.70
2023-05-24T02:09:34.380Z,6.60
2023-05-24T02:12:02.261Z,6.60
2023-05-24T02:14:29.125Z,6.50
2023-05-24T02:16:59.267Z,6.60
2023-05-24T02:19:26.376Z,6.50
2023-05-24T02:21:53.476Z,6.50
2023-05-24T02:24:20.322Z,6.40
2023-05-24T02:26:47.260Z,6.40
2023-05-24T02:29:15.075Z,6.40
2023-05-24T02:31:41.968Z,6.30
2023-05-24T02:34:08.941Z,6.30
2023-05-24T02:36:36.360Z,6.30
2023-05-24T02:39:04.267Z,6.30
2023-05-24T02:41:31.243Z,6.20
2023-05-24T02:43:58.103Z,6.20
2023-05-24T02:46:25.176Z,6.20
2023-05-24T02:48:52.270Z,6.20
2023-05-24T02:51:19.223Z,6.10
2023-05-24T02:53:46.365Z,6.10
2023-05-24T02:56:13.935Z,6.00
2023-05-24T02:58:41.718Z,6.10
2023-05-24T03:01:08.824Z,6.00
2023-05-24T03:03:36.168Z,6.00
2023-05-24T03:06:05.312Z,6.00
2023-05-24T03:08:32.542Z,5.90
2023-05-24T03:10:59.403Z,5.90
2023-05-24T03:13:26.290Z,5.90
2023-05-24T03:15:53.177Z,5.90
2023-05-24T03:18:20.123Z,5.90
2023-05-24T03:20:47.144Z,5.80
2023-05-24T03:23:14.997Z,5.80
2023-05-24T03:25:42.986Z,5.80
2023-05-24T03:28:10.470Z,5.80
2023-05-24T03:30:37.305Z,5.80
2023-05-24T03:33:04.422Z,5.80
2023-05-24T03:35:31.970Z,5.70
2023-05-24T03:37:58.851Z,5.80
2023-05-24T03:40:32.209Z,5.80
2023-05-24T03:43:07.747Z,5.70
2023-05-24T03:45:45.633Z,5.70
2023-05-24T03:48:13.275Z,5.70
2023-05-24T03:50:40.449Z,5.70
2023-05-24T03:53:07.430Z,5.70
2023-05-24T03:55:34.272Z,5.70
2023-05-24T03:58:01.254Z,5.60
2023-05-24T04:00:28.727Z,5.60
2023-05-24T04:02:56.044Z,5.60
2023-05-24T04:05:27.164Z,5.60
2023-05-24T04:07:54.091Z,5.70
2023-05-24T04:10:20.978Z,5.60
2023-05-24T04:12:49.108Z,5.60
2023-05-24T04:15:16.063Z,5.70
2023-05-24T04:17:44.018Z,5.70
2023-05-24T04:20:12.135Z,5.70
2023-05-24T04:22:39.719Z,5.60
2023-05-24T04:25:07.582Z,5.60
2023-05-24T04:27:36.221Z,5.70
2023-05-24T04:30:03.542Z,5.60
2023-05-24T04:32:30.645Z,5.70
2023-05-24T04:34:57.834Z,5.70
2023-05-24T04:37:25.237Z,5.80
2023-05-24T04:39:52.157Z,5.80
2023-05-24T04:42:18.982Z,5.80
2023-05-24T04:44:45.840Z,5.80
2023-05-24T04:47:13.954Z,5.90
2023-05-24T04:49:40.940Z,5.90
2023-05-24T04:52:07.956Z,6.00
2023-05-24T04:54:34.815Z,6.00
2023-05-24T04:57:01.653Z,6.00
2023-05-24T04:59:28.525Z,6.00
2023-05-24T05:01:56.015Z,6.10
2023-05-24T05:04:23.040Z,6.10
2023-05-24T05:06:49.966Z,6.10
2023-05-24T05:09:17.257Z,6.10
2023-05-24T05:11:44.111Z,6.20
2023-05-24T05:14:11.614Z,6.20
2023-05-24T05:16:39.107Z,6.20
2023-05-24T05:19:06.061Z,6.30
2023-05-24T05:21:33.872Z,6.30
2023-05-24T05:24:01.890Z,6.40
2023-05-24T05:26:29.717Z,6.40
2023-05-24T05:28:57.830Z,6.50
2023-05-24T05:31:25.182Z,6.50
2023-05-24T05:33:52.161Z,6.60
2023-05-24T05:36:19.073Z,6.60
2023-05-24T05:38:46.488Z,6.70
2023-05-24T05:41:13.495Z,6.70
2023-05-24T05:43:40.427Z,6.80
2023-05-24T05:46:07.408Z,6.90
2023-05-24T05:48:34.288Z,6.90
2023-05-24T05:51:01.130Z,6.90
2023-05-24T05:53:28.049Z,6.90
2023-05-24T05:55:55.018Z,6.90
2023-05-24T05:58:21.844Z,7.00
2023-05-24T06:00:48.670Z,7.00
2023-05-24T06:03:15.645Z,7.00
2023-05-24T06:05:43.131Z,7.00
2023-05-24T06:08:10.045Z,7.00
2023-05-24T06:10:36.916Z,7.00
2023-05-24T06:13:04.719Z,6.90
2023-05-24T06:15:33.326Z,6.90
2023-05-24T06:18:02.248Z,6.90
2023-05-24T06:20:29.504Z,7.00
2023-05-24T06:22:57.371Z,6.90
2023-05-24T06:25:24.508Z,6.90
2023-05-24T06:27:51.809Z,6.80
2023-05-24T06:30:19.045Z,6.90
2023-05-24T06:32:46.138Z,6.90
2023-05-24T06:35:13.205Z,6.90
2023-05-24T06:37:40.099Z,6.80
2023-05-24T06:40:09.486Z,6.90
2023-05-24T06:42:37.096Z,6.90
2023-05-24T06:45:04.179Z,6.90
2023-05-24T06:47:31.091Z,6.90
2023-05-24T06:49:58.100Z,6.90
2023-05-24T06:52:24.931Z,7.00
2023-05-24T06:54:52.494Z,6.90
2023-05-24T06:57:19.415Z,7.00
2023-05-24T06:59:46.443Z,7.00
2023-05-24T07:02:13.691Z,7.00
2023-05-24T07:04:41.238Z,7.10
2023-05-24T07:07:10.111Z,7.00
2023-05-24T07:09:37.085Z,7.10
2023-05-24T07:12:05.021Z,7.10
2023-05-24T07:14:32.733Z,7.10
2023-05-24T07:17:00.023Z,7.10
2023-05-24T07:19:30.188Z,7.20
2023-05-24T07:21:57.102Z,7.20
2023-05-24T07:24:24.197Z,7.40
2023-05-24T07:26:53.466Z,7.40
2023-05-24T07:29:21.849Z,7.30
2023-05-24T07:31:48.932Z,7.30
2023-05-24T07:34:16.355Z,7.40
2023-05-24T07:36:43.250Z,7.40
2023-05-24T07:39:10.307Z,7.40
2023-05-24T07:41:37.307Z,7.50
2023-05-24T07:44:04.277Z,7.50
2023-05-24T07:46:31.187Z,7.50
2023-05-24T07:48:58.230Z,7.60
2023-05-24T07:51:25.718Z,7.60
2023-05-24T07:53:52.756Z,7.70
2023-05-24T07:56:19.569Z,7.80
2023-05-24T07:58:46.976Z,8.00
2023-05-24T08:01:14.423Z,8.00
2023-05-24T08:03:41.508Z,8.00
2023-05-24T08:06:09.978Z,8.10
2023-05-24T08:08:36.838Z,8.10
2023-05-24T08:11:03.684Z,8.10
2023-05-24T08:13:30.697Z,8.10
2023-05-24T08:15:58.475Z,8.20
2023-05-24T08:18:25.362Z,8.20
2023-05-24T08:20:52.218Z,8.30
2023-05-24T08:23:19.178Z,8.30
2023-05-24T08:25:46.164Z,8.40
2023-05-24T08:28:13.166Z,8.40
2023-05-24T08:30:40.629Z,8.50
2023-05-24T08:33:07.512Z,8.50
2023-05-24T08:35:35.998Z,8.60
2023-05-24T08:38:02.853Z,8.70
2023-05-24T08:40:29.660Z,8.70
2023-05-24T08:42:59.896Z,8.80
2023-05-24T08:45:29.121Z,8.70
2023-05-24T08:47:57.175Z,8.90
2023-05-24T08:50:24.731Z,8.90
2023-05-24T08:52:52.877Z,8.90
2023-05-24T08:55:21.708Z,8.90
2023-05-24T08:57:49.835Z,8.90
2023-05-24T09:00:18.007Z,8.90
2023-05-24T09:02:46.374Z,8.90
2023-05-24T09:05:16.960Z,8.90
2023-05-24T09:07:45.444Z,8.90
2023-05-24T09:10:12.964Z,8.90
2023-05-24T09:12:48.841Z,8.90
2023-05-24T09:15:15.827Z,8.90
2023-05-24T09:17:43.205Z,8.90
2023-05-24T09:20:11.524Z,8.90
2023-05-24T09:22:42.280Z,8.90
2023-05-24T09:25:11.205Z,8.80
2023-05-24T09:27:38.493Z,8.80
2023-05-24T09:30:10.256Z,8.80
2023-05-24T09:32:37.658Z,8.80
2023-05-24T09:35:09.844Z,8.80
2023-05-24T09:37:38.878Z,8.90
2023-05-24T09:40:08.897Z,8.90
2023-05-24T09:42:35.814Z,8.90
2023-05-24T09:45:06.913Z,8.90
2023-05-24T09:47:37.765Z,8.90
2023-05-24T09:50:07.463Z,9.00
2023-05-24T09:52:37.883Z,9.10
2023-05-24T09:55:15.683Z,9.20
2023-05-24T09:57:50.193Z,9.30
2023-05-24T10:00:25.080Z,9.50
2023-05-24T10:03:07.318Z,9.60
2023-05-24T10:05:35.837Z,9.60
2023-05-24T10:08:06.823Z,9.70
2023-05-24T10:10:33.975Z,9.80
2023-05-24T10:13:01.962Z,9.90
2023-05-24T10:15:30.114Z,10.00
2023-05-24T10:17:58.117Z,10.00
2023-05-24T10:20:25.485Z,10.00
2023-05-24T10:22:55.593Z,10.10
2023-05-24T10:25:27.340Z,10.10
2023-05-24T10:28:08.726Z,10.10
2023-05-24T10:31:08.132Z,10.10
2023-05-24T10:33:40.130Z,10.20
2023-05-24T10:36:10.032Z,10.20
2023-05-24T10:38:40.584Z,10.20
2023-05-24T10:41:08.782Z,10.20
2023-05-24T10:43:36.587Z,10.20
2023-05-24T10:46:04.935Z,10.40
2023-05-24T10:48:32.744Z,10.40
2023-05-24T10:51:21.729Z,10.60
2023-05-24T10:53:49.887Z,10.70
2023-05-24T10:56:17.668Z,10.80
2023-05-24T10:58:48.454Z,10.80
2023-05-24T11:01:27.081Z,10.90
2023-05-24T11:04:06.895Z,10.90
2023-05-24T11:06:48.334Z,10.90
2023-05-24T11:09:16.982Z,10.90
2023-05-24T11:11:49.881Z,11.00
2023-05-24T11:14:23.097Z,11.00
2023-05-24T11:16:51.922Z,11.10
2023-05-24T11:19:20.300Z,11.20
2023-05-24T11:21:49.377Z,11.20
2023-05-24T11:24:17.960Z,11.30
2023-05-24T11:26:45.542Z,11.30
2023-05-24T11:29:22.217Z,11.40
2023-05-24T11:32:06.173Z,11.40
2023-05-24T11:34:34.270Z,11.60
2023-05-24T11:37:05.977Z,11.60
2023-05-24T11:39:35.381Z,11.70
2023-05-24T11:42:06.520Z,11.70
2023-05-24T11:44:35.252Z,11.80
2023-05-24T11:47:03.301Z,11.80
2023-05-24T11:49:30.509Z,11.90
2023-05-24T11:51:59.530Z,11.90
2023-05-24T11:54:30.122Z,12.00
2023-05-24T11:56:57.796Z,12.00
2023-05-24T11:59:26.591Z,12.10
2023-05-24T12:02:06.443Z,12.10
2023-05-24T12:04:34.589Z,12.10
2023-05-24T12:07:02.401Z,12.10
2023-05-24T12:09:29.622Z,12.20
2023-05-24T12:11:58.278Z,12.20
2023-05-24T12:14:32.482Z,12.30
2023-05-24T12:17:00.905Z,12.30
2023-05-24T12:19:37.299Z,12.40
2023-05-24T12:22:06.817Z,12.50
2023-05-24T12:24:34.359Z,12.50
2023-05-24T12:27:08.775Z,12.60
2023-05-24T12:29:41.161Z,12.50
2023-05-24T12:32:15.062Z,12.60
2023-05-24T12:34:43.735Z,12.70
2023-05-24T12:37:12.270Z,12.70
2023-05-24T12:39:39.829Z,12.70
2023-05-24T12:42:06.887Z,12.70
2023-05-24T12:44:38.184Z,12.80
2023-05-24T12:47:07.527Z,12.90
2023-05-24T12:49:34.646Z,12.90
2023-05-24T12:52:04.712Z,12.90
2023-05-24T12:54:32.093Z,12.90
2023-05-24T12:57:03.103Z,13.00
2023-05-24T12:59:30.301Z,12.90
2023-05-24T13:01:57.261Z,13.00
2023-05-24T13:04:27.037Z,13.00
2023-05-24T13:06:54.245Z,13.00
2023-05-24T13:09:22.423Z,13.00
2023-05-24T13:11:49.541Z,12.80
2023-05-24T13:14:17.170Z,12.80
2023-05-24T13:16:44.489Z,12.80
2023-05-24T13:19:12.400Z,12.80
2023-05-24T13:21:39.655Z,12.70
2023-05-24T13:24:07.593Z,12.70
2023-05-24T13:26:38.173Z,12.60
2023-05-24T13:31:38.267Z,12.70
2023-05-24T13:34:06.094Z,12.70
2023-05-24T13:36:35.213Z,12.80
2023-05-24T13:39:15.027Z,12.80
2023-05-24T13:41:44.247Z,12.80
2023-05-24T13:44:13.117Z,12.90
2023-05-24T13:46:40.868Z,13.00
2023-05-24T13:49:09.289Z,13.10
2023-05-24T13:51:37.044Z,13.20
2023-05-24T13:54:06.898Z,13.20
2023-05-24T13:56:34.316Z,13.20
2023-05-24T13:59:05.212Z,13.20
2023-05-24T14:01:32.896Z,13.20
2023-05-24T14:04:03.748Z,13.20
2023-05-24T14:06:31.926Z,13.20
2023-05-24T14:09:00.116Z,13.30
2023-05-24T14:11:31.454Z,13.40
2023-05-24T14:16:29.093Z,13.80
2023-05-24T14:18:56.682Z,14.10
2023-05-24T14:21:23.778Z,14.30
2023-05-24T14:23:50.693Z,14.70
2023-05-24T14:26:18.405Z,15.00
2023-05-24T14:28:45.320Z,15.30
2023-05-24T14:31:12.227Z,15.40
2023-05-24T14:33:39.149Z,15.50
2023-05-24T14:36:06.491Z,15.50
2023-05-24T14:38:33.418Z,15.40
2023-05-24T14:41:01.664Z,15.30
2023-05-24T14:43:28.613Z,15.10
2023-05-24T14:45:55.606Z,15.00
2023-05-24T14:48:22.469Z,14.80
2023-05-24T14:50:49.295Z,14.60
2023-05-24T14:53:16.214Z,14.40
2023-05-24T14:55:43.957Z,14.30
2023-05-24T14:58:12.103Z,14.20
2023-05-24T15:00:40.303Z,14.10
2023-05-24T15:03:12.577Z,14.10
2023-05-24T15:05:41.333Z,14.10
2023-05-24T15:08:09.040Z,14.10
2023-05-24T15:10:36.161Z,14.00
2023-05-24T15:13:04.715Z,14.00
2023-05-24T15:15:34.026Z,13.90
2023-05-24T15:18:01.207Z,14.00
2023-05-24T15:20:28.152Z,14.00
2023-05-24T15:22:55.147Z,14.00
2023-05-24T15:25:22.580Z,14.00
2023-05-24T15:27:49.553Z,13.90
2023-05-24T15:30:19.153Z,13.90
2023-05-24T15:32:46.459Z,13.90
2023-05-24T15:35:13.386Z,13.90
2023-05-24T15:37:42.629Z,13.90
2023-05-24T15:40:10.238Z,13.90
2023-05-24T15:42:37.155Z,14.00
2023-05-24T15:45:04.283Z,14.00
2023-05-24T15:47:36.296Z,14.10
2023-05-24T15:50:04.158Z,14.20
2023-05-24T15:52:30.975Z,14.30
2023-05-24T15:54:57.912Z,14.30
2023-05-24T15:57:24.788Z,14.40
2023-05-24T15:59:53.204Z,14.40
2023-05-24T16:02:21.410Z,14.50
2023-05-24T16:04:49.910Z,14.70
2023-05-24T16:07:18.135Z,14.90
2023-05-24T16:09:46.894Z,15.10
2023-05-24T16:12:13.803Z,15.30
2023-05-24T16:14:40.893Z,15.30
2023-05-24T16:17:08.168Z,15.40
2023-05-24T16:19:35.166Z,15.40
2023-05-24T16:22:02.098Z,15.50
2023-05-24T16:24:29.033Z,15.60
2023-05-24T16:26:57.360Z,15.60
2023-05-24T16:29:24.650Z,15.60
2023-05-24T16:31:51.960Z,15.70
2023-05-24T16:34:18.931Z,15.70
2023-05-24T16:36:46.932Z,15.60
2023-05-24T16:39:13.942Z,15.70
2023-05-24T16:41:40.758Z,15.80
2023-05-24T16:44:07.943Z,15.90
2023-05-24T16:46:35.096Z,16.00
2023-05-24T16:49:03.581Z,16.00
2023-05-24T16:51:30.593Z,15.90
2023-05-24T16:53:57.569Z,16.00
2023-05-24T16:56:24.415Z,15.90
2023-05-24T16:58:51.344Z,15.80
2023-05-24T17:01:18.234Z,15.70
2023-05-24T17:03:45.535Z,15.70
2023-05-24T17:06:12.586Z,15.70
2023-05-24T17:08:39.579Z,15.70
2023-05-24T17:11:07.083Z,15.70
2023-05-24T17:13:34.244Z,15.70
2023-05-24T17:16:03.329Z,15.70
2023-05-24T17:18:30.456Z,15.60
2023-05-24T17:20:59.829Z,15.60
2023-05-24T17:23:28.196Z,15.50
2023-05-24T17:25:57.929Z,15.40
2023-05-24T17:28:28.705Z,15.30
2023-05-24T17:30:56.031Z,15.20
2023-05-24T17:33:24.275Z,15.10
2023-05-24T17:35:51.600Z,15.10
2023-05-24T17:38:18.560Z,15.10
2023-05-24T17:40:46.652Z,15.00
2023-05-24T17:43:13.660Z,15.00
2023-05-24T17:45:41.101Z,14.90
2023-05-24T17:48:08.240Z,14.90
2023-05-24T17:50:44.205Z,14.70
2023-05-24T17:53:29.873Z,14.70
2023-05-24T17:55:58.282Z,14.60
2023-05-24T17:58:25.184Z,14.50
2023-05-24T18:00:52.162Z,14.30
2023-05-24T18:03:19.302Z,14.40
2023-05-24T18:05:46.358Z,14.30
2023-05-24T18:08:13.171Z,14.20
2023-05-24T18:10:40.399Z,14.20
2023-05-24T18:13:11.112Z,14.20
2023-05-24T18:15:38.115Z,14.10
2023-05-24T18:18:05.224Z,14.10
2023-05-24T18:20:32.232Z,14.00
2023-05-24T18:22:59.189Z,13.90
2023-05-24T18:25:26.431Z,13.90
2023-05-24T18:27:53.239Z,13.80
2023-05-24T18:30:20.228Z,13.80
2023-05-24T18:33:03.533Z,13.70
2023-05-24T18:35:32.192Z,13.70
2023-05-24T18:37:59.119Z,13.60
2023-05-24T18:40:26.330Z,13.60
2023-05-24T18:42:53.497Z,13.50
2023-05-24T18:45:20.556Z,13.40
2023-05-24T18:47:47.603Z,13.40
2023-05-24T18:50:14.546Z,13.30
2023-05-24T18:52:41.636Z,13.30
2023-05-24T18:55:10.926Z,13.30
2023-05-24T18:57:38.775Z,13.20
2023-05-24T19:00:07.200Z,13.20
2023-05-24T19:02:40.906Z,13.20
2023-05-24T19:05:08.472Z,13.10
2023-05-24T19:07:36.052Z,13.10
2023-05-24T19:10:03.999Z,13.00
2023-05-24T19:12:31.036Z,13.00
2023-05-24T19:14:57.847Z,12.90
2023-05-24T19:17:25.236Z,12.90
2023-05-24T19:19:52.453Z,12.90
2023-05-24T19:22:19.329Z,12.80
2023-05-24T19:24:46.418Z,12.80
2023-05-24T19:27:13.657Z,12.70
2023-05-24T19:29:40.724Z,12.60
2023-05-24T19:32:08.826Z,12.50
2023-05-24T19:34:37.322Z,12.50
2023-05-24T19:37:04.553Z,12.40
2023-05-24T19:39:31.642Z,12.40
2023-05-24T19:41:58.516Z,12.30
2023-05-24T19:44:25.340Z,12.30
2023-05-24T19:46:52.211Z,12.20
2023-05-24T19:49:19.123Z,12.20
2023-05-24T19:51:45.962Z,12.10
2023-05-24T19:54:13.626Z,12.10
2023-05-24T19:56:40.511Z,12.10
2023-05-24T19:59:07.585Z,12.00
2023-05-24T20:01:34.610Z,12.00
2023-05-24T20:04:01.881Z,12.00
2023-05-24T20:06:29.489Z,11.90
2023-05-24T20:08:58.804Z,11.90
2023-05-24T20:11:26.561Z,11.80
2023-05-24T20:13:53.865Z,11.80
2023-05-24T20:16:22.376Z,11.80
2023-05-24T20:18:49.442Z,11.80
2023-05-24T20:21:17.923Z,11.80
2023-05-24T20:23:44.933Z,11.80
2023-05-24T20:26:11.880Z,11.80
2023-05-24T20:28:39.943Z,11.70
2023-05-24T20:31:07.094Z,11.80
2023-05-24T20:33:38.164Z,11.70
2023-05-24T20:36:06.792Z,11.70
2023-05-24T20:38:33.751Z,11.60
2023-05-24T20:41:00.831Z,11.60
2023-05-24T20:43:27.665Z,11.70
2023-05-24T20:45:54.981Z,11.60
2023-05-24T20:48:23.262Z,11.60
2023-05-24T20:50:50.228Z,11.50
2023-05-24T20:53:18.252Z,11.50
2023-05-24T20:55:45.559Z,11.50
2023-05-24T20:58:12.767Z,11.40
2023-05-24T21:00:40.145Z,11.40
2023-05-24T21:03:07.775Z,11.40
2023-05-24T21:05:40.012Z,11.30
2023-05-24T21:08:06.943Z,11.20
2023-05-24T21:10:33.977Z,11.20
2023-05-24T21:13:00.952Z,11.20
2023-05-24T21:15:27.812Z,11.10
2023-05-24T21:17:54.819Z,11.10
2023-05-24T21:20:21.915Z,11.00
2023-05-24T21:22:49.029Z,11.00
2023-05-24T21:25:15.982Z,10.90
2023-05-24T21:27:42.836Z,10.90
2023-05-24T21:30:09.982Z,10.90
2023-05-24T21:32:36.880Z,10.90
2023-05-24T21:35:04.001Z,10.90
2023-05-24T21:37:30.846Z,10.90
2023-05-24T21:39:57.734Z,10.80
2023-05-24T21:42:24.715Z,10.80
2023-05-24T21:44:51.527Z,10.80
2023-05-24T21:47:18.380Z,10.80
2023-05-24T21:49:45.394Z,10.80
2023-05-24T21:52:12.334Z,10.70
2023-05-24T21:54:39.179Z,10.70
2023-05-24T21:57:07.148Z,10.70
2023-05-24T21:59:34.191Z,10.60
2023-05-24T22:02:01.364Z,10.60
2023-05-24T22:04:28.348Z,10.60
2023-05-24T22:06:55.389Z,10.50
2023-05-24T22:09:22.502Z,10.50
2023-05-24T22:11:49.422Z,10.50
2023-05-24T22:14:16.379Z,10.50
2023-05-24T22:16:43.617Z,10.40
2023-05-24T22:19:16.620Z,10.40
2023-05-24T22:21:45.993Z,10.40
2023-05-24T22:24:13.621Z,10.30
2023-05-24T22:26:47.042Z,10.30
2023-05-24T22:29:14.396Z,10.30
2023-05-24T22:31:41.451Z,10.20
2023-05-24T22:34:11.770Z,10.20
2023-05-24T22:36:38.968Z,10.10
2023-05-24T22:39:06.228Z,10.10
2023-05-24T22:41:33.177Z,10.10
2023-05-24T22:44:00.101Z,10.10
2023-05-24T22:46:27.049Z,10.00
2023-05-24T22:48:56.513Z,10.00
2023-05-24T22:51:23.460Z,10.00
2023-05-24T22:53:52.421Z,10.00
2023-05-24T22:56:19.756Z,10.00
2023-05-24T22:58:46.603Z,9.90
2023-05-24T23:01:14.757Z,9.90
2023-05-24T23:03:41.726Z,9.90
2023-05-24T23:06:11.919Z,9.80
2023-05-24T23:08:39.338Z,9.80
2023-05-24T23:11:11.940Z,9.80
2023-05-24T23:13:42.033Z,9.80
2023-05-24T23:16:08.894Z,9.80
2023-05-24T23:18:37.388Z,9.80
2023-05-24T23:21:04.531Z,9.70
2023-05-24T23:23:31.543Z,9.70
2023-05-24T23:25:58.366Z,9.70
2023-05-24T23:28:25.208Z,9.60
2023-05-24T23:30:53.435Z,9.70
2023-05-24T23:33:20.367Z,9.60
2023-05-24T23:35:47.209Z,9.50
2023-05-24T23:38:15.410Z,9.50
2023-05-24T23:40:42.555Z,9.50
2023-05-24T23:43:09.523Z,9.30
2023-05-24T23:45:36.399Z,9.40
2023-05-24T23:48:03.458Z,9.40
2023-05-24T23:50:35.059Z,9.40
2023-05-24T23:53:07.723Z,9.40
2023-05-24T23:55:34.574Z,9.30
2023-05-24T23:58:01.586Z,9.30
